createdAt,value
2023-02-16T00:01:04.485Z,3.2
2023-02-16T00:02:14.023Z,2.9
2023-02-16T00:03:22.803Z,3.6
2023-02-16T00:04:32.439Z,3.4
2023-02-16T00:05:42.203Z,3.3
2023-02-16T00:06:51.943Z,2.9
2023-02-16T00:08:00.658Z,3.6
2023-02-16T00:09:09.374Z,2.9
2023-02-16T00:10:19.090Z,3.1
2023-02-16T00:11:28.924Z,3.4
2023-02-16T00:12:37.695Z,3.1
2023-02-16T00:13:47.330Z,3.3
2023-02-16T00:14:56.404Z,3.5
2023-02-16T00:16:12.306Z,3.7
2023-02-16T00:17:21.996Z,4.4
2023-02-16T00:18:31.654Z,3.7
2023-02-16T00:19:40.379Z,3.6
2023-02-16T00:20:50.990Z,2.9
2023-02-16T00:22:00.697Z,3.6
2023-02-16T00:23:09.340Z,3
2023-02-16T00:24:19.007Z,3.3
2023-02-16T00:25:27.683Z,3.4
2023-02-16T00:26:37.384Z,3.1
2023-02-16T00:27:46.075Z,3.2
2023-02-16T00:28:54.713Z,3.6
2023-02-16T00:30:04.544Z,2.8
2023-02-16T00:31:12.322Z,2.5
2023-02-16T00:32:21.060Z,3
2023-02-16T00:33:30.850Z,2.8
2023-02-16T00:34:40.599Z,3.6
2023-02-16T00:35:50.352Z,3.8
2023-02-16T00:37:00.169Z,5.2
2023-02-16T00:38:08.955Z,5
2023-02-16T00:39:16.639Z,4.1
2023-02-16T00:40:26.446Z,3.9
2023-02-16T00:41:35.158Z,3.2
2023-02-16T00:42:45.024Z,3.4
2023-02-16T00:43:53.801Z,2.8
2023-02-16T00:45:03.539Z,3.6
2023-02-16T00:46:13.261Z,2.8
2023-02-16T00:47:21.045Z,3.4
2023-02-16T00:48:30.829Z,4.4
2023-02-16T00:49:39.667Z,3.6
2023-02-16T00:50:49.496Z,3.4
2023-02-16T00:51:59.385Z,3.4
2023-02-16T00:53:08.192Z,3.6
2023-02-16T00:54:17.930Z,2.8
2023-02-16T00:55:26.688Z,2.9
2023-02-16T00:56:35.673Z,3.4
2023-02-16T00:57:45.422Z,2.6
2023-02-16T00:58:54.110Z,3
2023-02-16T01:00:03.923Z,3
2023-02-16T01:01:13.701Z,3.4
2023-02-16T01:02:23.519Z,4.3
2023-02-16T01:03:33.275Z,6.1
2023-02-16T01:04:43.088Z,5
2023-02-16T01:05:51.740Z,4.9
2023-02-16T01:07:01.500Z,4
2023-02-16T01:08:11.246Z,4.9
2023-02-16T01:09:19.973Z,3.3
2023-02-16T01:10:29.774Z,5.6
2023-02-16T01:11:38.616Z,3.7
2023-02-16T01:12:48.434Z,4.9
2023-02-16T01:13:58.171Z,5.5
2023-02-16T01:15:07.911Z,2.6
2023-02-16T01:16:17.647Z,5.7
2023-02-16T01:17:26.414Z,6
2023-02-16T01:18:36.103Z,5.9
2023-02-16T01:19:45.782Z,6
2023-02-16T01:20:54.579Z,5.3
2023-02-16T01:22:04.384Z,6.4
2023-02-16T01:23:15.182Z,6.1
2023-02-16T01:24:22.842Z,6.1
2023-02-16T01:25:32.543Z,6.9
2023-02-16T01:26:39.238Z,7.1
2023-02-16T01:27:48.998Z,7.1
2023-02-16T01:28:58.699Z,6.8
2023-02-16T01:30:08.407Z,7.3
2023-02-16T01:31:18.144Z,7.6
2023-02-16T01:32:27.778Z,7.1
2023-02-16T01:33:35.534Z,5.8
2023-02-16T01:34:45.195Z,6.2
2023-02-16T01:35:52.895Z,6.2
2023-02-16T01:37:01.584Z,6.6
2023-02-16T01:38:11.318Z,4.9
2023-02-16T01:39:20.024Z,5.7
2023-02-16T01:40:29.749Z,5
2023-02-16T01:41:38.469Z,4.6
2023-02-16T01:42:47.236Z,5.3
2023-02-16T01:43:55.949Z,5.1
2023-02-16T01:45:04.626Z,4.5
2023-02-16T01:46:14.340Z,4.6
2023-02-16T01:47:24.022Z,4.5
2023-02-16T01:48:31.729Z,4.5
2023-02-16T01:49:40.416Z,4.9
2023-02-16T01:50:50.115Z,4.8
2023-02-16T01:51:57.828Z,2.8
2023-02-16T01:53:07.551Z,4.2
2023-02-16T01:54:15.237Z,3.6
2023-02-16T01:55:25.002Z,5.9
2023-02-16T01:56:34.677Z,4.3
2023-02-16T01:57:42.654Z,3.3
2023-02-16T01:58:52.432Z,3.7
2023-02-16T02:00:01.138Z,4.3
2023-02-16T02:01:10.873Z,3.4
2023-02-16T02:02:19.658Z,2.7
2023-02-16T02:03:28.504Z,2.7
2023-02-16T02:04:38.274Z,4.5
2023-02-16T02:05:45.934Z,2.4
2023-02-16T02:06:55.654Z,3.2
2023-02-16T02:08:05.334Z,2.7
2023-02-16T02:09:13.109Z,2.5
2023-02-16T02:10:22.792Z,2.1
2023-02-16T02:11:31.476Z,2.4
2023-02-16T02:12:40.136Z,3.1
2023-02-16T02:13:49.889Z,2.5
2023-02-16T02:14:57.596Z,1.7
2023-02-16T02:16:06.308Z,2.9
2023-02-16T02:17:16.107Z,2.4
2023-02-16T02:18:24.770Z,2.5
2023-02-16T02:19:34.510Z,2.2
2023-02-16T02:20:43.351Z,2.4
2023-02-16T02:21:51.093Z,2.1
2023-02-16T02:22:59.905Z,3.3
2023-02-16T02:24:09.674Z,3.1
2023-02-16T02:25:18.450Z,3.1
2023-02-16T02:26:28.180Z,2.9
2023-02-16T02:27:37.035Z,3.7
2023-02-16T02:28:46.900Z,3.3
2023-02-16T02:29:59.429Z,3.1
2023-02-16T02:31:09.016Z,2.8
2023-02-16T02:32:19.511Z,2.6
2023-02-16T02:33:30.152Z,2.6
2023-02-16T02:34:40.617Z,2.7
2023-02-16T02:35:51.137Z,3
2023-02-16T02:37:01.924Z,2.7
2023-02-16T02:38:12.055Z,3.2
2023-02-16T02:39:22.557Z,2.7
2023-02-16T02:40:31.533Z,2.9
2023-02-16T02:41:40.304Z,2.5
2023-02-16T02:42:49.115Z,3
2023-02-16T02:43:57.995Z,3.3
2023-02-16T02:45:07.938Z,2.7
2023-02-16T02:46:16.789Z,3
2023-02-16T02:47:26.625Z,3
2023-02-16T02:48:35.482Z,2.9
2023-02-16T02:49:45.403Z,2.5
2023-02-16T02:50:55.310Z,3.9
2023-02-16T02:52:03.289Z,2.6
2023-02-16T02:53:11.958Z,3.2
2023-02-16T02:54:20.722Z,2.8
2023-02-16T02:55:29.418Z,3.2
2023-02-16T02:56:39.150Z,2.8
2023-02-16T02:57:47.860Z,3
2023-02-16T02:58:57.562Z,3.2
2023-02-16T03:00:07.311Z,2.7
2023-02-16T03:01:16.001Z,3.4
2023-02-16T03:02:24.696Z,3.8
2023-02-16T03:03:34.384Z,3
2023-02-16T03:04:43.133Z,2.9
2023-02-16T03:05:52.904Z,3.6
2023-02-16T03:07:01.585Z,2.9
2023-02-16T03:08:12.257Z,2.7
2023-02-16T03:09:21.980Z,3.6
2023-02-16T03:10:31.687Z,3.1
2023-02-16T03:11:40.386Z,3.3
2023-02-16T03:12:50.064Z,2.8
2023-02-16T03:13:57.755Z,3
2023-02-16T03:15:07.507Z,3.1
2023-02-16T03:16:15.238Z,3.1
2023-02-16T03:17:23.891Z,3.4
2023-02-16T03:18:33.642Z,3.1
2023-02-16T03:19:41.389Z,3.6
2023-02-16T03:20:50.107Z,3
2023-02-16T03:21:59.818Z,2.3
2023-02-16T03:23:07.508Z,2.8
2023-02-16T03:24:17.187Z,2.9
2023-02-16T03:25:25.888Z,2.9
2023-02-16T03:26:33.577Z,2.9
2023-02-16T03:27:43.296Z,2.6
2023-02-16T03:28:51.989Z,2.9
2023-02-16T03:30:01.714Z,2.3
2023-02-16T03:31:11.474Z,2.7
2023-02-16T03:32:19.097Z,2.7
2023-02-16T03:33:27.783Z,3.9
2023-02-16T03:34:36.531Z,2.2
2023-02-16T03:35:46.320Z,2.8
2023-02-16T03:36:56.016Z,2.4
2023-02-16T03:38:05.730Z,2.4
2023-02-16T03:39:14.436Z,2.8
2023-02-16T03:40:22.148Z,2.8
2023-02-16T03:41:30.872Z,2.9
2023-02-16T03:42:39.583Z,2.5
2023-02-16T03:43:47.262Z,2.6
2023-02-16T03:44:56.966Z,2.3
2023-02-16T03:46:06.710Z,2.5
2023-02-16T03:47:15.367Z,2.7
2023-02-16T03:48:24.140Z,2.7
2023-02-16T03:49:33.853Z,2
2023-02-16T03:50:55.680Z,2.4
2023-02-16T03:52:05.359Z,3.2
2023-02-16T03:53:14.080Z,2
2023-02-16T03:54:22.782Z,1.8
2023-02-16T03:55:32.469Z,2.2
2023-02-16T03:56:41.195Z,2.6
2023-02-16T03:57:50.885Z,2.9
2023-02-16T03:58:58.558Z,1.9
2023-02-16T04:00:07.278Z,2.6
2023-02-16T04:01:16.984Z,2
2023-02-16T04:02:25.744Z,2.2
2023-02-16T04:03:35.395Z,2.4
2023-02-16T04:04:44.095Z,2
2023-02-16T04:05:51.929Z,2
2023-02-16T04:07:01.785Z,2.6
2023-02-16T04:08:10.360Z,2.2
2023-02-16T04:09:19.041Z,2.7
2023-02-16T04:10:28.790Z,2.8
2023-02-16T04:11:36.486Z,3.5
2023-02-16T04:12:46.193Z,5.2
2023-02-16T04:13:55.908Z,5.7
2023-02-16T04:15:04.626Z,2.6
2023-02-16T04:16:15.041Z,1.8
2023-02-16T04:17:22.740Z,2.3
2023-02-16T04:18:31.424Z,2.2
2023-02-16T04:19:41.087Z,1.9
2023-02-16T04:20:49.802Z,2.1
2023-02-16T04:21:59.510Z,2
2023-02-16T04:23:08.194Z,2.2
2023-02-16T04:24:16.889Z,2.4
2023-02-16T04:25:26.640Z,2.9
2023-02-16T04:26:34.293Z,2.8
2023-02-16T04:27:43.998Z,2.9
2023-02-16T04:28:53.692Z,1.7
2023-02-16T04:30:02.554Z,2.5
2023-02-16T04:31:12.371Z,2.7
2023-02-16T04:32:20.983Z,1.8
2023-02-16T04:33:29.684Z,2.6
2023-02-16T04:34:39.376Z,2
2023-02-16T04:35:47.129Z,2.1
2023-02-16T04:36:56.892Z,2.4
2023-02-16T04:38:06.618Z,1.8
2023-02-16T04:39:15.295Z,2.4
2023-02-16T04:40:25.048Z,2
2023-02-16T04:41:33.802Z,2.1
2023-02-16T04:42:43.503Z,2.4
2023-02-16T04:43:53.235Z,2.2
2023-02-16T04:45:01.945Z,2.3
2023-02-16T04:46:11.796Z,2.5
2023-02-16T04:47:20.442Z,1.9
2023-02-16T04:48:30.170Z,2
2023-02-16T04:49:39.900Z,2.1
2023-02-16T04:50:49.646Z,2.3
2023-02-16T04:51:58.376Z,2.1
2023-02-16T04:53:08.092Z,1.6
2023-02-16T04:54:16.806Z,2
2023-02-16T04:55:26.534Z,2.1
2023-02-16T04:56:36.271Z,2
2023-02-16T04:57:43.934Z,2.4
2023-02-16T04:58:53.675Z,2.5
2023-02-16T05:00:02.632Z,1.9
2023-02-16T05:01:11.419Z,2.5
2023-02-16T05:02:21.101Z,1.9
2023-02-16T05:03:29.793Z,2.3
2023-02-16T05:04:38.511Z,2
2023-02-16T05:05:48.238Z,1.9
2023-02-16T05:06:56.943Z,2.4
2023-02-16T05:08:12.860Z,1.8
2023-02-16T05:09:22.569Z,1.8
2023-02-16T05:10:30.364Z,2
2023-02-16T05:11:40.166Z,1.9
2023-02-16T05:12:49.852Z,2.3
2023-02-16T05:13:59.604Z,1.6
2023-02-16T05:15:09.377Z,2.1
2023-02-16T05:16:18.110Z,2.2
2023-02-16T05:17:27.806Z,2.8
2023-02-16T05:18:35.540Z,2.2
2023-02-16T05:19:44.268Z,2.5
2023-02-16T05:20:54.054Z,2
2023-02-16T05:22:02.793Z,2.3
2023-02-16T05:23:11.473Z,2.5
2023-02-16T05:24:21.149Z,1.8
2023-02-16T05:25:28.841Z,2
2023-02-16T05:26:38.588Z,2.3
2023-02-16T05:27:48.297Z,2.5
2023-02-16T05:28:56.973Z,3.1
2023-02-16T05:30:06.712Z,2.9
2023-02-16T05:31:15.414Z,3
2023-02-16T05:32:24.125Z,3.2
2023-02-16T05:33:33.788Z,2.9
2023-02-16T05:34:41.450Z,3.3
2023-02-16T05:35:51.180Z,3
2023-02-16T05:36:59.913Z,3.4
2023-02-16T05:38:08.071Z,4.1
2023-02-16T05:39:17.777Z,3.9
2023-02-16T05:40:32.869Z,3.7
2023-02-16T05:41:41.587Z,3.3
2023-02-16T05:42:51.290Z,4.5
2023-02-16T05:43:58.943Z,4.4
2023-02-16T05:45:08.653Z,4
2023-02-16T05:46:19.298Z,4.4
2023-02-16T05:47:28.985Z,3.8
2023-02-16T05:48:38.741Z,3.6
2023-02-16T05:49:47.441Z,4.1
2023-02-16T05:50:56.111Z,4.1
2023-02-16T05:52:05.843Z,3.7
2023-02-16T05:53:15.557Z,4.9
2023-02-16T05:54:25.258Z,4.4
2023-02-16T05:55:33.891Z,3.8
2023-02-16T05:56:43.630Z,2.7
2023-02-16T05:57:56.895Z,4
2023-02-16T05:59:04.610Z,3.9
2023-02-16T06:00:14.325Z,4.2
2023-02-16T06:01:22.036Z,4.5
2023-02-16T06:02:30.808Z,4.4
2023-02-16T06:03:40.498Z,3.7
2023-02-16T06:04:50.214Z,4
2023-02-16T06:05:59.956Z,3.7
2023-02-16T06:07:09.665Z,4
2023-02-16T06:08:17.396Z,3.5
2023-02-16T06:09:27.081Z,3.2
2023-02-16T06:10:35.818Z,2.6
2023-02-16T06:11:45.056Z,2.7
2023-02-16T06:12:54.736Z,2.5
2023-02-16T06:14:04.508Z,3.7
2023-02-16T06:15:17.826Z,3.1
2023-02-16T06:16:26.530Z,2.8
2023-02-16T06:17:36.229Z,3.6
2023-02-16T06:18:45.918Z,2.3
2023-02-16T06:19:55.664Z,2.8
2023-02-16T06:21:05.609Z,2.2
2023-02-16T06:22:15.063Z,2.8
2023-02-16T06:23:23.791Z,2
2023-02-16T06:24:33.537Z,2.1
2023-02-16T06:25:42.200Z,1.9
2023-02-16T06:26:49.961Z,2.5
2023-02-16T06:27:59.677Z,2.1
2023-02-16T06:29:07.416Z,1.9
2023-02-16T06:30:16.140Z,2.5
2023-02-16T06:31:25.954Z,2.3
2023-02-16T06:32:33.679Z,2.3
2023-02-16T06:33:43.330Z,2.2
2023-02-16T06:34:52.083Z,2.6
2023-02-16T06:35:59.777Z,1.9
2023-02-16T06:37:09.547Z,2.9
2023-02-16T06:38:18.272Z,2.1
2023-02-16T06:39:26.953Z,2.8
2023-02-16T06:40:36.666Z,13
2023-02-16T06:41:45.385Z,3.6
2023-02-16T06:42:55.131Z,2.2
2023-02-16T06:44:03.819Z,3.3
2023-02-16T06:45:12.567Z,2.4
2023-02-16T06:46:22.277Z,2.4
2023-02-16T06:47:29.987Z,2.2
2023-02-16T06:48:39.675Z,2.2
2023-02-16T06:49:49.380Z,2.5
2023-02-16T06:50:57.092Z,2.5
2023-02-16T06:52:06.953Z,2.7
2023-02-16T06:53:15.610Z,2.3
2023-02-16T06:54:23.302Z,2.3
2023-02-16T06:55:32.977Z,2
2023-02-16T06:56:42.694Z,2.6
2023-02-16T06:57:52.406Z,2.2
2023-02-16T06:59:02.077Z,2
2023-02-16T07:00:09.786Z,1.9
2023-02-16T07:01:19.689Z,2.5
2023-02-16T07:02:28.212Z,2.5
2023-02-16T07:03:37.986Z,2.9
2023-02-16T07:04:47.714Z,2.2
2023-02-16T07:05:56.434Z,2.6
2023-02-16T07:07:05.157Z,2.6
2023-02-16T07:08:14.904Z,2.5
2023-02-16T07:09:24.591Z,2.7
2023-02-16T07:10:47.630Z,2.1
2023-02-16T07:11:44.213Z,2.7
2023-02-16T07:12:52.966Z,2.4
2023-02-16T07:14:02.755Z,2
2023-02-16T07:15:11.410Z,2.5
2023-02-16T07:16:21.282Z,2.4
2023-02-16T07:17:30.939Z,2.7
2023-02-16T07:18:39.663Z,2.6
2023-02-16T07:19:49.368Z,2.6
2023-02-16T07:20:58.055Z,2.9
2023-02-16T07:22:05.745Z,2.3
2023-02-16T07:23:15.533Z,3
2023-02-16T07:24:25.198Z,3.2
2023-02-16T07:25:36.731Z,3.1
2023-02-16T07:26:44.620Z,2.7
2023-02-16T07:27:54.358Z,2.1
2023-02-16T07:29:04.047Z,2.7
2023-02-16T07:30:13.741Z,2.4
2023-02-16T07:31:21.521Z,2
2023-02-16T07:32:31.161Z,2.8
2023-02-16T07:33:39.806Z,3.3
2023-02-16T07:34:48.514Z,3.1
2023-02-16T07:35:58.231Z,2.9
2023-02-16T07:37:05.903Z,2.8
2023-02-16T07:38:15.741Z,2.6
2023-02-16T07:39:25.434Z,2.6
2023-02-16T07:40:34.172Z,3
2023-02-16T07:41:44.905Z,3.2
2023-02-16T07:42:53.614Z,4.1
2023-02-16T07:44:02.362Z,3.9
2023-02-16T07:45:12.072Z,4.6
2023-02-16T07:46:20.795Z,5.4
2023-02-16T07:47:30.496Z,5.8
2023-02-16T07:48:39.306Z,4.7
2023-02-16T07:49:46.936Z,3.5
2023-02-16T07:50:56.645Z,3.4
2023-02-16T07:52:04.365Z,2.7
2023-02-16T07:53:14.077Z,3.4
2023-02-16T07:54:22.758Z,2.9
2023-02-16T07:55:31.448Z,4.2
2023-02-16T07:56:41.170Z,5.5
2023-02-16T07:57:49.838Z,3.4
2023-02-16T07:58:59.553Z,2.5
2023-02-16T08:00:08.247Z,3
2023-02-16T08:01:16.938Z,2.9
2023-02-16T08:02:26.705Z,2.9
2023-02-16T08:03:36.385Z,3
2023-02-16T08:04:46.152Z,2.6
2023-02-16T08:05:55.803Z,2.5
2023-02-16T08:07:05.507Z,2.4
2023-02-16T08:08:15.226Z,2.1
2023-02-16T08:09:23.951Z,2.6
2023-02-16T08:10:31.631Z,2.5
2023-02-16T08:11:41.362Z,2.1
2023-02-16T08:12:51.059Z,2.6
2023-02-16T08:13:59.792Z,2.6
2023-02-16T08:15:09.512Z,2.8
2023-02-16T08:16:17.192Z,1.7
2023-02-16T08:17:24.856Z,2.5
2023-02-16T08:18:34.560Z,1.5
2023-02-16T08:19:43.308Z,1.8
2023-02-16T08:21:03.598Z,1.9
2023-02-16T08:22:01.653Z,2.5
2023-02-16T08:23:10.388Z,2.4
2023-02-16T08:24:20.165Z,1.9
2023-02-16T08:25:27.870Z,2.2
2023-02-16T08:26:37.591Z,1.8
2023-02-16T08:27:46.304Z,1.8
2023-02-16T08:28:55.027Z,2
2023-02-16T08:30:04.822Z,1.8
2023-02-16T08:31:12.503Z,2
2023-02-16T08:32:21.259Z,1.6
2023-02-16T08:33:30.946Z,2.3
2023-02-16T08:34:42.197Z,2.2
2023-02-16T08:35:50.357Z,2
2023-02-16T08:37:00.231Z,1.5
2023-02-16T08:38:09.798Z,2.3
2023-02-16T08:39:19.534Z,2
2023-02-16T08:40:27.215Z,2.1
2023-02-16T08:41:35.941Z,2.2
2023-02-16T08:42:45.652Z,1.8
2023-02-16T08:43:54.454Z,1.6
2023-02-16T08:45:04.364Z,1.7
2023-02-16T08:46:13.131Z,1.8
2023-02-16T08:47:22.086Z,1.9
2023-02-16T08:48:31.818Z,1.7
2023-02-16T08:49:39.626Z,1.5
2023-02-16T08:50:49.248Z,1.5
2023-02-16T08:51:58.988Z,1.6
2023-02-16T08:53:06.728Z,1.4
2023-02-16T08:54:16.429Z,1.9
2023-02-16T08:55:25.175Z,1.5
2023-02-16T08:56:33.824Z,1
2023-02-16T08:57:43.556Z,1.1
2023-02-16T08:58:51.257Z,1
2023-02-16T09:00:00.028Z,1.1
2023-02-16T09:01:09.777Z,0.8
2023-02-16T09:02:17.502Z,1.1
2023-02-16T09:03:27.248Z,1.2
2023-02-16T09:04:36.957Z,1.2
2023-02-16T09:05:44.657Z,1.2
2023-02-16T09:06:54.360Z,1.5
2023-02-16T09:08:02.099Z,1.7
2023-02-16T09:09:10.966Z,1.7
2023-02-16T09:10:21.197Z,2.2
2023-02-16T09:11:30.949Z,1.2
2023-02-16T09:12:40.694Z,1.3
2023-02-16T09:13:50.402Z,1.2
2023-02-16T09:14:58.085Z,1.2
2023-02-16T09:16:07.813Z,1.1
2023-02-16T09:17:17.578Z,1.6
2023-02-16T09:18:26.229Z,1.4
2023-02-16T09:19:35.943Z,1.8
2023-02-16T09:20:46.841Z,1.8
2023-02-16T09:21:55.367Z,1.1
2023-02-16T09:23:05.049Z,1.3
2023-02-16T09:24:14.766Z,1.3
2023-02-16T09:25:23.434Z,1.4
2023-02-16T09:26:31.120Z,1.4
2023-02-16T09:27:39.810Z,1.9
2023-02-16T09:28:49.562Z,1.4
2023-02-16T09:29:58.300Z,1.6
2023-02-16T09:31:08.030Z,1.5
2023-02-16T09:32:17.651Z,1.1
2023-02-16T09:33:25.360Z,0.6
2023-02-16T09:34:35.027Z,1
2023-02-16T09:35:44.721Z,1.3
2023-02-16T09:36:53.396Z,0.9
2023-02-16T09:38:03.088Z,1.1
2023-02-16T09:39:10.777Z,1.2
2023-02-16T09:40:20.545Z,0.8
2023-02-16T09:41:29.235Z,0.9
2023-02-16T09:42:37.896Z,1.7
2023-02-16T09:43:47.587Z,1.3
2023-02-16T09:44:56.322Z,0.8
2023-02-16T09:46:06.324Z,1.1
2023-02-16T09:47:15.761Z,0.6
2023-02-16T09:48:24.463Z,1
2023-02-16T09:49:34.162Z,0.7
2023-02-16T09:50:53.650Z,0.6
2023-02-16T09:51:54.521Z,0.8
2023-02-16T09:53:03.214Z,1
2023-02-16T09:54:10.892Z,0.7
2023-02-16T09:55:19.603Z,0.6
2023-02-16T09:56:27.392Z,0.7
2023-02-16T09:57:37.079Z,0.8
2023-02-16T09:58:46.758Z,0.5
2023-02-16T09:59:55.529Z,0.9
2023-02-16T10:01:05.240Z,0.8
2023-02-16T10:02:13.936Z,0.7
2023-02-16T10:03:22.744Z,0.9
2023-02-16T10:04:32.436Z,0.7
2023-02-16T10:05:42.200Z,0.8
2023-02-16T10:06:51.064Z,0.7
2023-02-16T10:08:00.723Z,1
2023-02-16T10:09:09.413Z,0.9
2023-02-16T10:10:19.275Z,0.8
2023-02-16T10:11:27.827Z,1
2023-02-16T10:12:36.544Z,1
2023-02-16T10:13:46.202Z,1
2023-02-16T10:14:53.901Z,0.7
2023-02-16T10:16:03.687Z,1
2023-02-16T10:17:13.369Z,1.3
2023-02-16T10:18:22.138Z,0.6
2023-02-16T10:19:31.772Z,0.8
2023-02-16T10:20:40.470Z,1
2023-02-16T10:21:50.189Z,0.8
2023-02-16T10:22:59.850Z,0.9
2023-02-16T10:24:08.534Z,0.8
2023-02-16T10:25:17.261Z,0.6
2023-02-16T10:26:27.011Z,1.1
2023-02-16T10:27:34.694Z,0.8
2023-02-16T10:28:44.437Z,0.7
2023-02-16T10:29:53.152Z,0.6
2023-02-16T10:31:02.170Z,0.6
2023-02-16T10:32:11.605Z,1
2023-02-16T10:33:19.219Z,0.9
2023-02-16T10:34:27.957Z,0.7
2023-02-16T10:35:37.661Z,0.7
2023-02-16T10:36:46.343Z,0.7
2023-02-16T10:37:56.000Z,1
2023-02-16T10:39:04.743Z,0.6
2023-02-16T10:40:13.483Z,0.7
2023-02-16T10:41:23.191Z,0.6
2023-02-16T10:42:31.941Z,0.7
2023-02-16T10:43:40.706Z,0.6
2023-02-16T10:44:50.468Z,0.6
2023-02-16T10:45:58.131Z,0.9
2023-02-16T10:47:07.843Z,0.6
2023-02-16T10:48:15.571Z,1.2
2023-02-16T10:49:24.267Z,0.7
2023-02-16T10:50:33.068Z,0.7
2023-02-16T10:51:40.812Z,0.8
2023-02-16T10:52:50.505Z,0.7
2023-02-16T10:54:00.181Z,0.8
2023-02-16T10:55:08.930Z,1
2023-02-16T10:56:18.639Z,0.9
2023-02-16T10:57:28.364Z,0.7
2023-02-16T10:58:37.034Z,1
2023-02-16T10:59:46.710Z,0.7
2023-02-16T11:00:55.599Z,0.9
2023-02-16T11:02:04.186Z,0.8
2023-02-16T11:03:13.851Z,0.8
2023-02-16T11:04:23.578Z,1.3
2023-02-16T11:05:33.211Z,0.8
2023-02-16T11:06:42.971Z,1
2023-02-16T11:07:51.621Z,1
2023-02-16T11:09:00.308Z,0.9
2023-02-16T11:10:09.979Z,1
2023-02-16T11:11:19.707Z,0.7
2023-02-16T11:12:29.428Z,0.8
2023-02-16T11:13:39.102Z,0.7
2023-02-16T11:14:48.806Z,1.1
2023-02-16T11:15:56.556Z,0.8
2023-02-16T11:17:06.286Z,0.8
2023-02-16T11:18:15.929Z,0.7
2023-02-16T11:19:24.643Z,1.3
2023-02-16T11:20:34.322Z,0.9
2023-02-16T11:21:44.057Z,0.9
2023-02-16T11:22:51.752Z,0.9
2023-02-16T11:24:01.493Z,0.5
2023-02-16T11:25:10.183Z,0.9
2023-02-16T11:26:17.864Z,0.6
2023-02-16T11:27:27.628Z,0.9
2023-02-16T11:28:37.370Z,0.6
2023-02-16T11:29:46.053Z,0.4
2023-02-16T11:30:55.815Z,0.8
2023-02-16T11:32:03.513Z,1.1
2023-02-16T11:33:13.322Z,0.8
2023-02-16T11:34:22.028Z,0.6
2023-02-16T11:35:29.716Z,0.9
2023-02-16T11:36:39.483Z,0.8
2023-02-16T11:37:48.201Z,0.7
2023-02-16T11:38:55.900Z,0.7
2023-02-16T11:40:05.617Z,0.7
2023-02-16T11:41:13.281Z,0.5
2023-02-16T11:42:22.956Z,0.6
2023-02-16T11:43:31.631Z,0.6
2023-02-16T11:44:41.328Z,0.7
2023-02-16T11:45:51.033Z,0.6
2023-02-16T11:46:59.862Z,0.9
2023-02-16T11:48:09.548Z,0.9
2023-02-16T11:49:18.251Z,0.8
2023-02-16T11:50:26.938Z,0.8
2023-02-16T11:51:36.686Z,1
2023-02-16T11:52:45.377Z,0.6
2023-02-16T11:53:55.057Z,0.8
2023-02-16T11:55:03.738Z,1.3
2023-02-16T11:56:12.435Z,1
2023-02-16T11:57:22.136Z,1.1
2023-02-16T11:58:31.817Z,0.6
2023-02-16T11:59:40.543Z,0.7
2023-02-16T12:00:50.252Z,1.1
2023-02-16T12:01:59.948Z,0.6
2023-02-16T12:03:09.608Z,0.7
2023-02-16T12:04:18.468Z,1
2023-02-16T12:05:28.322Z,1
2023-02-16T12:06:37.838Z,0.8
2023-02-16T12:07:46.539Z,0.9
2023-02-16T12:08:56.317Z,0.6
2023-02-16T12:10:06.024Z,0.8
2023-02-16T12:11:14.716Z,0.8
2023-02-16T12:12:24.420Z,0.8
2023-02-16T12:13:34.132Z,0.9
2023-02-16T12:14:42.895Z,0.8
2023-02-16T12:15:52.636Z,0.6
2023-02-16T12:17:02.336Z,1
2023-02-16T12:18:12.005Z,0.5
2023-02-16T12:19:21.715Z,1.2
2023-02-16T12:20:29.397Z,0.5
2023-02-16T12:21:39.105Z,0.5
2023-02-16T12:22:47.842Z,0.7
2023-02-16T12:23:57.492Z,0.5
2023-02-16T12:25:07.210Z,0.8
2023-02-16T12:26:15.881Z,0.6
2023-02-16T12:27:25.586Z,0.6
2023-02-16T12:28:35.266Z,0.5
2023-02-16T12:29:43.965Z,1
2023-02-16T12:30:51.798Z,0.7
2023-02-16T12:32:00.501Z,0.5
2023-02-16T12:33:08.227Z,0.8
2023-02-16T12:34:17.803Z,0.5
2023-02-16T12:35:26.501Z,0.8
2023-02-16T12:36:36.196Z,0.8
2023-02-16T12:37:45.928Z,0.5
2023-02-16T12:38:54.596Z,0.9
2023-02-16T12:40:04.360Z,0.7
2023-02-16T12:41:14.029Z,0.5
2023-02-16T12:42:22.739Z,0.3
2023-02-16T12:43:32.463Z,0.9
2023-02-16T12:44:41.108Z,0.7
2023-02-16T12:45:50.931Z,0.6
2023-02-16T12:46:59.536Z,0.5
2023-02-16T12:48:09.319Z,0.4
2023-02-16T12:49:19.017Z,0.9
2023-02-16T12:50:27.763Z,0.4
2023-02-16T12:51:35.442Z,0.3
2023-02-16T12:52:45.180Z,0.6
2023-02-16T12:53:52.875Z,0.6
2023-02-16T12:55:01.529Z,0.5
2023-02-16T12:56:11.261Z,0.7
2023-02-16T12:57:18.991Z,0.7
2023-02-16T12:58:28.710Z,0.7
2023-02-16T12:59:37.388Z,0.7
2023-02-16T13:00:46.141Z,0.8
2023-02-16T13:01:55.747Z,0.6
2023-02-16T13:03:04.878Z,0.6
2023-02-16T13:04:14.163Z,0.9
2023-02-16T13:05:23.822Z,0.3
2023-02-16T13:06:32.493Z,0.7
2023-02-16T13:07:42.282Z,0.8
2023-02-16T13:08:50.958Z,0.6
2023-02-16T13:09:59.690Z,0.7
2023-02-16T13:11:09.397Z,0.5
2023-02-16T13:12:18.026Z,0.7
2023-02-16T13:13:26.773Z,0.6
2023-02-16T13:14:36.471Z,0.6
2023-02-16T13:15:44.231Z,0.9
2023-02-16T13:16:53.983Z,1
2023-02-16T13:18:03.650Z,0.8
2023-02-16T13:19:13.326Z,0.4
2023-02-16T13:20:23.033Z,0.5
2023-02-16T13:21:37.184Z,0.5
2023-02-16T13:22:42.378Z,0.6
2023-02-16T13:23:52.069Z,0.6
2023-02-16T13:24:59.915Z,0.6
2023-02-16T13:26:09.918Z,0.4
2023-02-16T13:27:18.215Z,0.7
2023-02-16T13:28:27.044Z,0.5
2023-02-16T13:29:36.714Z,0.6
2023-02-16T13:30:45.624Z,0.5
2023-02-16T13:31:54.306Z,0.6
2023-02-16T13:33:03.816Z,0.6
2023-02-16T13:34:12.536Z,0.5
2023-02-16T13:35:22.209Z,0.6
2023-02-16T13:36:31.895Z,0.4
2023-02-16T13:37:39.607Z,0.7
2023-02-16T13:38:49.305Z,0.4
2023-02-16T13:39:56.990Z,0.6
2023-02-16T13:41:05.713Z,0.6
2023-02-16T13:42:15.439Z,0.5
2023-02-16T13:43:24.137Z,0.7
2023-02-16T13:44:33.792Z,0.3
2023-02-16T13:45:42.533Z,0.7
2023-02-16T13:46:52.173Z,0.3
2023-02-16T13:48:00.899Z,0.4
2023-02-16T13:49:09.588Z,0.4
2023-02-16T13:50:18.267Z,0.6
2023-02-16T13:51:25.959Z,0.7
2023-02-16T13:52:35.690Z,0.4
2023-02-16T13:53:45.420Z,0.6
2023-02-16T13:54:54.142Z,0.6
2023-02-16T13:56:04.011Z,0.5
2023-02-16T13:57:13.500Z,0.7
2023-02-16T13:58:23.241Z,0.4
2023-02-16T13:59:31.915Z,0.7
2023-02-16T14:00:40.680Z,0.5
2023-02-16T14:01:50.344Z,0.5
2023-02-16T14:03:00.039Z,0.7
2023-02-16T14:04:07.730Z,0.7
2023-02-16T14:05:17.424Z,0.9
2023-02-16T14:06:27.128Z,1.3
2023-02-16T14:07:36.822Z,0.6
2023-02-16T14:08:46.491Z,0.6
2023-02-16T14:09:54.292Z,0.5
2023-02-16T14:11:02.982Z,0.7
2023-02-16T14:12:12.630Z,0.7
2023-02-16T14:13:19.369Z,0.8
2023-02-16T14:14:29.088Z,0.2
2023-02-16T14:15:37.745Z,0.4
2023-02-16T14:16:47.436Z,0.4
2023-02-16T14:17:57.123Z,0.6
2023-02-16T14:19:06.854Z,0.8
2023-02-16T14:20:15.529Z,0.6
2023-02-16T14:21:25.198Z,0.5
2023-02-16T14:22:33.897Z,0.8
2023-02-16T14:23:43.629Z,0.9
2023-02-16T14:24:53.325Z,0.7
2023-02-16T14:26:02.281Z,0.4
2023-02-16T14:27:11.719Z,0.4
2023-02-16T14:28:21.424Z,0.5
2023-02-16T14:29:30.164Z,0.4
2023-02-16T14:30:39.854Z,0.7
2023-02-16T14:31:47.637Z,0.5
2023-02-16T14:32:57.201Z,0.3
2023-02-16T14:34:06.908Z,0.6
2023-02-16T14:35:15.592Z,0.3
2023-02-16T14:36:25.296Z,0.4
2023-02-16T14:37:32.985Z,0.5
2023-02-16T14:38:42.690Z,0.4
2023-02-16T14:40:07.209Z,0.5
2023-02-16T14:41:02.017Z,0.5
2023-02-16T14:42:11.729Z,0.3
2023-02-16T14:43:20.358Z,0.2
2023-02-16T14:44:28.032Z,0.4
2023-02-16T14:45:37.731Z,0.7
2023-02-16T14:46:46.436Z,0.6
2023-02-16T14:47:56.109Z,0.3
2023-02-16T14:49:05.847Z,0.5
2023-02-16T14:50:14.500Z,0.4
2023-02-16T14:51:24.207Z,0.4
2023-02-16T14:52:32.857Z,0.3
2023-02-16T14:53:41.525Z,0.8
2023-02-16T14:54:51.259Z,0.6
2023-02-16T14:55:59.934Z,0.5
2023-02-16T14:57:08.670Z,0.6
2023-02-16T14:58:18.309Z,0.5
2023-02-16T14:59:25.986Z,0.8
2023-02-16T15:00:35.720Z,0.7
2023-02-16T15:01:44.505Z,0.7
2023-02-16T15:02:53.220Z,0.4
2023-02-16T15:04:02.929Z,0.7
2023-02-16T15:05:12.648Z,0.6
2023-02-16T15:06:21.303Z,0.6
2023-02-16T15:07:31.008Z,0.6
2023-02-16T15:08:38.680Z,0.6
2023-02-16T15:09:48.481Z,0.5
2023-02-16T15:10:58.169Z,0.4
2023-02-16T15:12:07.840Z,0.7
2023-02-16T15:13:17.548Z,0.6
2023-02-16T15:14:27.270Z,0.4
2023-02-16T15:15:35.989Z,0.7
2023-02-16T15:16:45.628Z,0.6
2023-02-16T15:17:54.328Z,0.3
2023-02-16T15:19:04.041Z,0.8
2023-02-16T15:20:12.687Z,0.6
2023-02-16T15:21:21.374Z,0.3
2023-02-16T15:22:31.066Z,0.7
2023-02-16T15:23:40.831Z,0.4
2023-02-16T15:24:50.540Z,0.4
2023-02-16T15:26:00.249Z,0.5
2023-02-16T15:27:07.922Z,0.8
2023-02-16T15:28:17.609Z,0.6
2023-02-16T15:29:27.339Z,0.6
2023-02-16T15:30:36.023Z,0.5
2023-02-16T15:31:45.753Z,0.5
2023-02-16T15:32:53.395Z,0.8
2023-02-16T15:34:02.175Z,0.7
2023-02-16T15:35:11.954Z,0.6
2023-02-16T15:36:19.567Z,0.8
2023-02-16T15:37:29.261Z,0.8
2023-02-16T15:38:37.959Z,0.8
2023-02-16T15:40:00.938Z,0.6
2023-02-16T15:40:57.323Z,0.6
2023-02-16T15:42:05.974Z,0.6
2023-02-16T15:43:14.622Z,0.5
2023-02-16T15:44:24.296Z,0.5
2023-02-16T15:45:31.986Z,0.6
2023-02-16T15:46:41.662Z,0.3
2023-02-16T15:47:50.297Z,0.7
2023-02-16T15:48:59.988Z,0.8
2023-02-16T15:50:08.693Z,0.4
2023-02-16T15:51:17.439Z,0.2
2023-02-16T15:52:27.050Z,0.6
2023-02-16T15:53:35.048Z,0.5
2023-02-16T15:54:44.735Z,0.6
2023-02-16T15:55:54.446Z,0.5
2023-02-16T15:57:02.192Z,0.6
2023-02-16T15:58:10.899Z,0.6
2023-02-16T15:59:20.543Z,0.6